Hauptseite
METAR-TAF:

METAR-TAF

Flughäfen :

Shanghai Pudong International Airport

Shanghai-Pudong, China

Breite: 31-07N, Länge: 121-46E, Höhe: 4 m

Beobachtung

Neuester Wetterbericht von vor 37 Minuten, um 13:00 UTC
Wind 2 kt aus unterschiedlichen Richtungen
Temperatur 26°C
Luftfeuchtigkeit 94%
Luftdruck 1011 hPa
Sichtweite 10 km oder mehr
keine Wolken unter 1500 m und keine Kumulonimbus oder Gewitterwolken

METAR: ZSPD 191300Z VRB01MPS CAVOK 26/25 Q1011 NOSIG

Zeit: 21:37 (13:37 UTC)

Prognose

Neuester Wetterbericht von vor 4 Stunden und 15 Minuten, um 09:22 UTC
Gültige Prognose vom 19 um 12 UTC bis 20 um 12 UTC
Wind 6 kt aus West/Südwest
Sichtweite: 6000 m
Durchbrochene Bewölkung in der Höhe von 1300 ft

TAF: ZSPD 190922Z 1912/2012 24003MPS 6000 BKN013 TX31/2006Z TN25/1921Z

Wetterbeobachtungen und Prognosen von mehr als 4000 Flughäfen (METAR und TAF Bericht).

Die verfügbaren Stationen werden durch gelbe und rote Markierungen auf der Karte dargestellt.

Führen Sie die Maus auf sie, um den Namen der Station zu sehen.

Darauf klicken, um die Beobachtung von Wetterbeobachtungen und Prognosen zu sehen.

Um die Karte zu ändern : klicken Sie auf den grünen Tasten mit einem schwarzen Kreuz Zum Vergrößern, auf den grünen Button mit einem Gedankenstrich zu verkleinern, oder auf die grünen Pfeile für benachbarte Karten.


METAR-TAF: